Humidity-temperature Sensor

Selected Measurement Type: Air Temperature

 
Air Temperature [°C]     6 entries per hour
Showing data from 6/19/2014 (00:00:00 Z) to 6/18/2014 (00:01:00 Z)
Previous Next [ Day | 3-Days | 7-Days ]
First Last
Prev [ Day | 3-Days | 7-Days ] Next
First Last

Start Time:     :
End Time:     :     
Time (in GMT) :00 :50 :40 :30 :20 :10
Previous Next [ Day | 3-Days | 7-Days ]
First Last
Prev [ Day | 3-Days | 7-Days ] Next
First Last


123 => good data
MM => data is determined as missing
-- => data not received/configured
Back to Top Back to Top
6/19/2014 00:00 to 23:10 25.26 25.49 25.48 25.66 25.78 25.63
6/18/2014 23:00 to 22:10 25.59 25.61 25.56 25.54 25.56 25.52
6/18/2014 22:00 to 21:10 25.52 25.45 25.45 25.44 25.33 25.35
6/18/2014 21:00 to 20:10 25.34 25.28 25.26 25.29 25.26 25.26
6/18/2014 20:00 to 19:10 25.23 25.26 25.22 25.14 25.24 25.19
6/18/2014 19:00 to 18:10 25.22 25.27 25.20 25.22 25.26 25.32
6/18/2014 18:00 to 17:10 25.31 25.37 25.38 25.33 25.29 25.20
6/18/2014 17:00 to 16:10 25.19 25.13 25.15 25.21 25.25 25.26
6/18/2014 16:00 to 15:10 25.28 25.33 25.31 25.41 25.36 25.45
6/18/2014 15:00 to 14:10 25.37 25.41 25.36 25.33 25.54 25.37
6/18/2014 14:00 to 13:10 25.48 25.33 25.32 25.42 25.29 25.19
6/18/2014 13:00 to 12:10 25.18 25.13 25.08 25.00 24.94 24.96
6/18/2014 12:00 to 11:10 24.86 24.87 24.84 24.84 24.82 24.78
6/18/2014 11:00 to 10:10 24.78 24.78 24.76 24.76 24.75 24.75
6/18/2014 10:00 to 9:10 24.81 24.78 24.73 24.81 24.76 24.76
6/18/2014 09:00 to 8:10 24.75 24.80 24.83 24.77 24.79 24.85
6/18/2014 08:00 to 7:10 24.80 24.76 24.83 24.84 24.84 24.78
6/18/2014 07:00 to 6:10 24.85 24.85 24.87 24.86 24.91 24.88
6/18/2014 06:00 to 5:10 24.90 24.93 24.92 24.91 24.93 24.92
6/18/2014 05:00 to 4:10 24.88 24.86 24.88 24.89 24.86 24.89
6/18/2014 04:00 to 3:10 24.89 24.89 24.93 24.91 24.94 24.90
6/18/2014 03:00 to 2:10 24.98 24.90 24.92 24.95 24.90 24.97
6/18/2014 02:00 to 1:10 24.95 24.90 24.96 24.93 24.97 24.95
6/18/2014 01:00 to 0:10 -- -- -- -- -- --